Página principal
METAR-TAF:

METAR-TAF

Aeroportos :

Aeroporto Internacional de Don Mueang

Banguecoque, Tailândia

latitude: 13-54-45N, longitude: 100-36-24E, altura: 4 m

Observação actual do tempo

O boletim foi feito há 20 minutos, às 09:30 UTC
Vento 9 kt de es-nordeste, variando entre nordeste e este
Temperatura 30°C
Humidade 66%
Pressão 1012 hPa
Visibilidade 10 km ou mais
Poucas nuvensa uma altura de 2000 ft

METAR: VTBD 120930Z 07009KT 040V100 9999 FEW020 30/23 Q1012 NOSIG

Hora: 16:50 (09:50 UTC)

Previsão

O boletim foi feito há 4 horas e 50 minutos, às 05:00 UTC
Previsão válida de 12 às 06 UTC a 13 às 12 UTC
Vento 8 kt de es-nordeste
Visibilidade 10 km ou mais
Poucas nuvensa uma altura de 3000 ft
Nuvens dispersasa uma altura de 10000 ft
Tornando-se
de 13 às 02 UTC a 13 às 04 UTC
Vento 8 kt de norte

TAF: VTBD 120500Z 1206/1312 06008KT 9999 FEW030 SCT100 BECMG 1302/1304 36008KT

Observações e previsões do tempo de mais de 4000 aeroportos (mensagens METAR e TAF).

As estações disponíveis são os pontos amarelos e vermelhos sobre o mapa.

Mova o rato sobre o mapa para ver o nome da estação.

Depois clique no ponto para visualizar as observações e previsões meteorológicas.

Para alterar o mapa : clique nos botões verdes com uma cruz preta para aumentar o zoom; no botão verde com uma pitada de zoom; ou nas setas verdes para mapas adjacentes.


METAR-TAF: